sensor_id;sensor_type;location;lat;lon;timestamp;temperature;humidity
59556;DHT22;45374;52.746;6.304;2023-04-29T00:01:23;9.70;99.90
59556;DHT22;45374;52.746;6.304;2023-04-29T00:03:50;9.80;99.90
59556;DHT22;45374;52.746;6.304;2023-04-29T00:06:18;9.80;99.90
59556;DHT22;45374;52.746;6.304;2023-04-29T00:08:44;9.80;99.90
59556;DHT22;45374;52.746;6.304;2023-04-29T00:11:10;9.80;99.90
59556;DHT22;45374;52.746;6.304;2023-04-29T00:13:36;9.60;99.90
59556;DHT22;45374;52.746;6.304;2023-04-29T00:16:01;9.80;99.90
59556;DHT22;45374;52.746;6.304;2023-04-29T00:18:27;9.60;99.90
59556;DHT22;45374;52.746;6.304;2023-04-29T00:20:58;9.70;99.90
59556;DHT22;45374;52.746;6.304;2023-04-29T00:23:23;9.60;99.90
59556;DHT22;45374;52.746;6.304;2023-04-29T00:25:49;9.60;99.90
59556;DHT22;45374;52.746;6.304;2023-04-29T00:28:16;9.60;99.90
59556;DHT22;45374;52.746;6.304;2023-04-29T00:30:41;9.50;99.90
59556;DHT22;45374;52.746;6.304;2023-04-29T00:33:07;9.60;99.90
59556;DHT22;45374;52.746;6.304;2023-04-29T00:35:32;9.50;99.90
59556;DHT22;45374;52.746;6.304;2023-04-29T00:37:58;9.40;99.90
59556;DHT22;45374;52.746;6.304;2023-04-29T00:40:24;9.40;99.90
59556;DHT22;45374;52.746;6.304;2023-04-29T00:42:51;9.40;99.90
59556;DHT22;45374;52.746;6.304;2023-04-29T00:45:17;9.40;99.90
59556;DHT22;45374;52.746;6.304;2023-04-29T00:47:42;9.30;99.90
59556;DHT22;45374;52.746;6.304;2023-04-29T00:50:08;9.40;99.90
59556;DHT22;45374;52.746;6.304;2023-04-29T00:52:36;9.20;99.90
59556;DHT22;45374;52.746;6.304;2023-04-29T00:55:03;9.30;99.90
59556;DHT22;45374;52.746;6.304;2023-04-29T00:57:30;9.30;99.90
59556;DHT22;45374;52.746;6.304;2023-04-29T00:59:59;9.20;99.90
59556;DHT22;45374;52.746;6.304;2023-04-29T01:02:25;9.10;99.90
59556;DHT22;45374;52.746;6.304;2023-04-29T01:04:51;9.00;99.90
59556;DHT22;45374;52.746;6.304;2023-04-29T01:07:30;9.00;99.90
59556;DHT22;45374;52.746;6.304;2023-04-29T01:10:14;9.10;99.90
59556;DHT22;45374;52.746;6.304;2023-04-29T01:15:59;9.00;99.90
59556;DHT22;45374;52.746;6.304;2023-04-29T01:18:35;9.20;99.90
59556;DHT22;45374;52.746;6.304;2023-04-29T01:21:03;9.20;99.90
59556;DHT22;45374;52.746;6.304;2023-04-29T01:23:29;9.30;99.90
59556;DHT22;45374;52.746;6.304;2023-04-29T01:25:56;9.20;99.90
59556;DHT22;45374;52.746;6.304;2023-04-29T01:31:48;9.30;99.90
59556;DHT22;45374;52.746;6.304;2023-04-29T01:34:22;9.30;99.90
59556;DHT22;45374;52.746;6.304;2023-04-29T01:37:09;9.30;99.90
59556;DHT22;45374;52.746;6.304;2023-04-29T01:39:44;9.30;99.90
59556;DHT22;45374;52.746;6.304;2023-04-29T01:42:33;9.30;99.90
59556;DHT22;45374;52.746;6.304;2023-04-29T01:45:05;9.30;99.90
59556;DHT22;45374;52.746;6.304;2023-04-29T01:47:32;9.30;99.90
59556;DHT22;45374;52.746;6.304;2023-04-29T01:49:58;9.40;99.90
59556;DHT22;45374;52.746;6.304;2023-04-29T01:52:23;9.30;99.90
59556;DHT22;45374;52.746;6.304;2023-04-29T01:54:49;9.40;99.90
59556;DHT22;45374;52.746;6.304;2023-04-29T01:57:15;9.30;99.90
59556;DHT22;45374;52.746;6.304;2023-04-29T01:59:41;9.30;99.90
59556;DHT22;45374;52.746;6.304;2023-04-29T02:02:06;9.20;99.90
59556;DHT22;45374;52.746;6.304;2023-04-29T02:04:34;9.40;99.90
59556;DHT22;45374;52.746;6.304;2023-04-29T02:06:59;9.30;99.90
59556;DHT22;45374;52.746;6.304;2023-04-29T02:09:26;9.30;99.90
59556;DHT22;45374;52.746;6.304;2023-04-29T02:11:51;9.30;99.90
59556;DHT22;45374;52.746;6.304;2023-04-29T02:14:17;9.30;99.90
59556;DHT22;45374;52.746;6.304;2023-04-29T02:16:43;9.30;99.90
59556;DHT22;45374;52.746;6.304;2023-04-29T02:19:12;9.20;99.90
59556;DHT22;45374;52.746;6.304;2023-04-29T02:21:38;9.20;99.90
59556;DHT22;45374;52.746;6.304;2023-04-29T02:24:07;9.20;99.90
59556;DHT22;45374;52.746;6.304;2023-04-29T02:26:32;9.20;99.90
59556;DHT22;45374;52.746;6.304;2023-04-29T02:29:02;9.20;99.90
59556;DHT22;45374;52.746;6.304;2023-04-29T02:31:28;9.20;99.90
59556;DHT22;45374;52.746;6.304;2023-04-29T02:33:54;9.20;99.90
59556;DHT22;45374;52.746;6.304;2023-04-29T02:36:20;9.10;99.90
59556;DHT22;45374;52.746;6.304;2023-04-29T02:38:45;9.20;99.90
59556;DHT22;45374;52.746;6.304;2023-04-29T02:41:15;9.20;99.90
59556;DHT22;45374;52.746;6.304;2023-04-29T02:43:42;9.20;99.90
59556;DHT22;45374;52.746;6.304;2023-04-29T02:46:09;9.20;99.90
59556;DHT22;45374;52.746;6.304;2023-04-29T02:48:34;9.20;99.90
59556;DHT22;45374;52.746;6.304;2023-04-29T02:51:01;9.20;99.90
59556;DHT22;45374;52.746;6.304;2023-04-29T02:53:26;9.20;99.90
59556;DHT22;45374;52.746;6.304;2023-04-29T02:55:52;9.20;99.90
59556;DHT22;45374;52.746;6.304;2023-04-29T02:58:17;9.20;99.90
59556;DHT22;45374;52.746;6.304;2023-04-29T03:00:43;9.20;99.90
59556;DHT22;45374;52.746;6.304;2023-04-29T03:03:09;9.20;99.90
59556;DHT22;45374;52.746;6.304;2023-04-29T03:05:35;9.20;99.90
59556;DHT22;45374;52.746;6.304;2023-04-29T03:08:01;9.20;99.90
59556;DHT22;45374;52.746;6.304;2023-04-29T03:10:26;9.10;99.90
59556;DHT22;45374;52.746;6.304;2023-04-29T03:12:52;9.20;99.90
59556;DHT22;45374;52.746;6.304;2023-04-29T03:15:18;9.10;99.90
59556;DHT22;45374;52.746;6.304;2023-04-29T03:17:43;9.10;99.90
59556;DHT22;45374;52.746;6.304;2023-04-29T03:20:10;9.10;99.90
59556;DHT22;45374;52.746;6.304;2023-04-29T03:22:36;9.10;99.90
59556;DHT22;45374;52.746;6.304;2023-04-29T03:25:02;9.10;99.90
59556;DHT22;45374;52.746;6.304;2023-04-29T03:27:27;9.10;99.90
59556;DHT22;45374;52.746;6.304;2023-04-29T03:29:53;9.10;99.90
59556;DHT22;45374;52.746;6.304;2023-04-29T03:32:18;9.00;99.90
59556;DHT22;45374;52.746;6.304;2023-04-29T03:34:44;9.00;99.90
59556;DHT22;45374;52.746;6.304;2023-04-29T03:37:09;9.00;99.90
59556;DHT22;45374;52.746;6.304;2023-04-29T03:39:35;8.90;99.90
59556;DHT22;45374;52.746;6.304;2023-04-29T03:42:01;8.90;99.90
59556;DHT22;45374;52.746;6.304;2023-04-29T03:44:27;8.90;99.90
59556;DHT22;45374;52.746;6.304;2023-04-29T03:46:53;8.80;99.90
59556;DHT22;45374;52.746;6.304;2023-04-29T03:49:19;8.80;99.90
59556;DHT22;45374;52.746;6.304;2023-04-29T03:51:45;8.70;99.90
59556;DHT22;45374;52.746;6.304;2023-04-29T03:54:11;8.70;99.90
59556;DHT22;45374;52.746;6.304;2023-04-29T03:56:37;8.70;99.90
59556;DHT22;45374;52.746;6.304;2023-04-29T03:59:03;8.60;99.90
59556;DHT22;45374;52.746;6.304;2023-04-29T04:01:29;8.70;99.90
59556;DHT22;45374;52.746;6.304;2023-04-29T04:03:54;8.60;99.90
59556;DHT22;45374;52.746;6.304;2023-04-29T04:06:20;8.60;99.90
59556;DHT22;45374;52.746;6.304;2023-04-29T04:08:46;8.60;99.90
59556;DHT22;45374;52.746;6.304;2023-04-29T04:11:12;8.70;99.90
59556;DHT22;45374;52.746;6.304;2023-04-29T04:13:42;8.60;99.90
59556;DHT22;45374;52.746;6.304;2023-04-29T04:16:09;8.60;99.90
59556;DHT22;45374;52.746;6.304;2023-04-29T04:18:35;8.70;99.90
59556;DHT22;45374;52.746;6.304;2023-04-29T04:21:08;8.70;99.90
59556;DHT22;45374;52.746;6.304;2023-04-29T04:23:36;8.70;99.90
59556;DHT22;45374;52.746;6.304;2023-04-29T04:26:04;8.80;99.90
59556;DHT22;45374;52.746;6.304;2023-04-29T04:28:30;8.70;99.90
59556;DHT22;45374;52.746;6.304;2023-04-29T04:30:56;8.80;99.90
59556;DHT22;45374;52.746;6.304;2023-04-29T04:33:21;8.80;99.90
59556;DHT22;45374;52.746;6.304;2023-04-29T04:35:47;8.80;99.90
59556;DHT22;45374;52.746;6.304;2023-04-29T04:38:12;8.80;99.90
59556;DHT22;45374;52.746;6.304;2023-04-29T04:40:43;8.80;99.90
59556;DHT22;45374;52.746;6.304;2023-04-29T04:43:08;8.80;99.90
59556;DHT22;45374;52.746;6.304;2023-04-29T04:45:34;8.90;99.90
59556;DHT22;45374;52.746;6.304;2023-04-29T04:47:59;8.90;99.90
59556;DHT22;45374;52.746;6.304;2023-04-29T04:50:29;8.80;99.90
59556;DHT22;45374;52.746;6.304;2023-04-29T04:52:57;8.80;99.90
59556;DHT22;45374;52.746;6.304;2023-04-29T04:55:23;8.80;99.90
59556;DHT22;45374;52.746;6.304;2023-04-29T04:57:49;8.90;99.90
59556;DHT22;45374;52.746;6.304;2023-04-29T05:00:15;8.80;99.90
59556;DHT22;45374;52.746;6.304;2023-04-29T05:02:46;8.90;99.90
59556;DHT22;45374;52.746;6.304;2023-04-29T05:05:11;8.80;99.90
59556;DHT22;45374;52.746;6.304;2023-04-29T05:07:37;8.90;99.90
59556;DHT22;45374;52.746;6.304;2023-04-29T05:10:02;9.00;99.90
59556;DHT22;45374;52.746;6.304;2023-04-29T05:12:28;8.90;99.90
59556;DHT22;45374;52.746;6.304;2023-04-29T05:14:56;8.90;99.90
59556;DHT22;45374;52.746;6.304;2023-04-29T05:17:23;9.00;99.90
59556;DHT22;45374;52.746;6.304;2023-04-29T05:19:49;9.00;99.90
59556;DHT22;45374;52.746;6.304;2023-04-29T05:22:15;9.00;99.90
59556;DHT22;45374;52.746;6.304;2023-04-29T05:24:40;9.00;99.90
59556;DHT22;45374;52.746;6.304;2023-04-29T05:27:06;9.00;99.90
59556;DHT22;45374;52.746;6.304;2023-04-29T05:29:32;8.90;99.90
59556;DHT22;45374;52.746;6.304;2023-04-29T05:31:57;9.00;99.90
59556;DHT22;45374;52.746;6.304;2023-04-29T05:34:23;9.00;99.90
59556;DHT22;45374;52.746;6.304;2023-04-29T05:36:49;9.10;99.90
59556;DHT22;45374;52.746;6.304;2023-04-29T05:39:14;9.00;99.90
59556;DHT22;45374;52.746;6.304;2023-04-29T05:41:42;9.00;99.90
59556;DHT22;45374;52.746;6.304;2023-04-29T05:44:08;9.10;99.90
59556;DHT22;45374;52.746;6.304;2023-04-29T05:46:33;9.10;99.90
59556;DHT22;45374;52.746;6.304;2023-04-29T05:48:59;9.20;99.90
59556;DHT22;45374;52.746;6.304;2023-04-29T05:51:25;9.10;99.90
59556;DHT22;45374;52.746;6.304;2023-04-29T05:53:52;9.20;99.90
59556;DHT22;45374;52.746;6.304;2023-04-29T05:56:18;9.20;99.90
59556;DHT22;45374;52.746;6.304;2023-04-29T05:58:44;9.20;99.90
59556;DHT22;45374;52.746;6.304;2023-04-29T06:01:10;9.30;99.90
59556;DHT22;45374;52.746;6.304;2023-04-29T06:03:35;9.20;99.90
59556;DHT22;45374;52.746;6.304;2023-04-29T06:06:01;9.30;99.90
59556;DHT22;45374;52.746;6.304;2023-04-29T06:08:27;9.30;99.90
59556;DHT22;45374;52.746;6.304;2023-04-29T06:10:53;9.30;99.90
59556;DHT22;45374;52.746;6.304;2023-04-29T06:13:18;9.40;99.90
59556;DHT22;45374;52.746;6.304;2023-04-29T06:15:44;9.40;99.90
59556;DHT22;45374;52.746;6.304;2023-04-29T06:18:10;9.50;99.90
59556;DHT22;45374;52.746;6.304;2023-04-29T06:20:36;9.50;99.90
59556;DHT22;45374;52.746;6.304;2023-04-29T06:23:02;9.50;99.90
59556;DHT22;45374;52.746;6.304;2023-04-29T06:25:27;9.60;99.90
59556;DHT22;45374;52.746;6.304;2023-04-29T06:27:53;9.70;99.90
59556;DHT22;45374;52.746;6.304;2023-04-29T06:30:18;9.70;99.90
59556;DHT22;45374;52.746;6.304;2023-04-29T06:32:48;9.70;99.90
59556;DHT22;45374;52.746;6.304;2023-04-29T06:35:14;9.80;99.90
59556;DHT22;45374;52.746;6.304;2023-04-29T06:37:39;9.90;99.90
59556;DHT22;45374;52.746;6.304;2023-04-29T06:40:05;9.90;99.90
59556;DHT22;45374;52.746;6.304;2023-04-29T06:42:31;10.00;99.90
59556;DHT22;45374;52.746;6.304;2023-04-29T06:44:57;10.00;99.90
59556;DHT22;45374;52.746;6.304;2023-04-29T06:47:22;10.10;99.90
59556;DHT22;45374;52.746;6.304;2023-04-29T06:49:48;10.20;99.90
59556;DHT22;45374;52.746;6.304;2023-04-29T06:52:13;10.20;99.90
59556;DHT22;45374;52.746;6.304;2023-04-29T06:54:39;10.20;99.90
59556;DHT22;45374;52.746;6.304;2023-04-29T06:57:05;10.30;99.90
59556;DHT22;45374;52.746;6.304;2023-04-29T06:59:30;10.30;99.90
59556;DHT22;45374;52.746;6.304;2023-04-29T07:01:57;10.40;99.90
59556;DHT22;45374;52.746;6.304;2023-04-29T07:04:22;10.40;99.90
59556;DHT22;45374;52.746;6.304;2023-04-29T07:06:48;10.40;99.90
59556;DHT22;45374;52.746;6.304;2023-04-29T07:09:13;10.50;99.90
59556;DHT22;45374;52.746;6.304;2023-04-29T07:11:39;10.60;99.90
59556;DHT22;45374;52.746;6.304;2023-04-29T07:14:05;10.80;99.90
59556;DHT22;45374;52.746;6.304;2023-04-29T07:16:32;11.00;99.90
59556;DHT22;45374;52.746;6.304;2023-04-29T07:18:57;11.10;99.90
59556;DHT22;45374;52.746;6.304;2023-04-29T07:21:23;11.30;99.90
59556;DHT22;45374;52.746;6.304;2023-04-29T07:23:49;11.40;99.90
59556;DHT22;45374;52.746;6.304;2023-04-29T07:26:16;11.40;99.90
59556;DHT22;45374;52.746;6.304;2023-04-29T07:28:42;11.40;99.90
59556;DHT22;45374;52.746;6.304;2023-04-29T07:31:08;11.30;99.90
59556;DHT22;45374;52.746;6.304;2023-04-29T07:33:34;11.30;99.90
59556;DHT22;45374;52.746;6.304;2023-04-29T07:36:00;11.30;99.90
59556;DHT22;45374;52.746;6.304;2023-04-29T07:38:26;11.30;99.90
59556;DHT22;45374;52.746;6.304;2023-04-29T07:40:52;11.20;99.90
59556;DHT22;45374;52.746;6.304;2023-04-29T07:43:17;11.30;99.90
59556;DHT22;45374;52.746;6.304;2023-04-29T07:45:43;11.30;99.90
59556;DHT22;45374;52.746;6.304;2023-04-29T07:48:09;11.40;99.90
59556;DHT22;45374;52.746;6.304;2023-04-29T07:50:34;11.40;99.90
59556;DHT22;45374;52.746;6.304;2023-04-29T07:53:03;11.50;99.90
59556;DHT22;45374;52.746;6.304;2023-04-29T07:55:29;11.50;99.90
59556;DHT22;45374;52.746;6.304;2023-04-29T07:57:55;11.60;99.90
59556;DHT22;45374;52.746;6.304;2023-04-29T08:00:21;11.70;99.90
59556;DHT22;45374;52.746;6.304;2023-04-29T08:02:51;11.70;99.90
59556;DHT22;45374;52.746;6.304;2023-04-29T08:05:17;11.70;99.90
59556;DHT22;45374;52.746;6.304;2023-04-29T08:07:43;11.80;99.90
59556;DHT22;45374;52.746;6.304;2023-04-29T08:10:09;11.80;99.90
59556;DHT22;45374;52.746;6.304;2023-04-29T08:12:34;11.80;99.90
59556;DHT22;45374;52.746;6.304;2023-04-29T08:15:00;11.90;99.90
59556;DHT22;45374;52.746;6.304;2023-04-29T08:17:26;12.00;99.90
59556;DHT22;45374;52.746;6.304;2023-04-29T08:19:51;12.10;99.90
59556;DHT22;45374;52.746;6.304;2023-04-29T08:22:17;12.10;99.90
59556;DHT22;45374;52.746;6.304;2023-04-29T08:24:42;12.20;99.90
59556;DHT22;45374;52.746;6.304;2023-04-29T08:27:09;12.30;99.90
59556;DHT22;45374;52.746;6.304;2023-04-29T08:29:35;12.40;99.90
59556;DHT22;45374;52.746;6.304;2023-04-29T08:32:01;12.40;99.90
59556;DHT22;45374;52.746;6.304;2023-04-29T08:34:27;12.50;99.90
59556;DHT22;45374;52.746;6.304;2023-04-29T08:36:52;12.40;99.90
59556;DHT22;45374;52.746;6.304;2023-04-29T08:39:18;12.40;99.90
59556;DHT22;45374;52.746;6.304;2023-04-29T08:41:43;12.40;99.90
59556;DHT22;45374;52.746;6.304;2023-04-29T08:44:14;12.60;99.90
59556;DHT22;45374;52.746;6.304;2023-04-29T08:46:43;12.80;99.90
59556;DHT22;45374;52.746;6.304;2023-04-29T08:49:10;12.90;99.90
59556;DHT22;45374;52.746;6.304;2023-04-29T08:51:35;12.90;99.90
59556;DHT22;45374;52.746;6.304;2023-04-29T08:54:01;12.80;99.90
59556;DHT22;45374;52.746;6.304;2023-04-29T08:56:27;12.80;99.90
59556;DHT22;45374;52.746;6.304;2023-04-29T08:58:56;12.90;99.90
59556;DHT22;45374;52.746;6.304;2023-04-29T09:01:25;12.90;99.90
59556;DHT22;45374;52.746;6.304;2023-04-29T09:06:32;12.80;99.90
59556;DHT22;45374;52.746;6.304;2023-04-29T09:08:59;12.90;99.90
59556;DHT22;45374;52.746;6.304;2023-04-29T09:11:26;13.20;99.90
59556;DHT22;45374;52.746;6.304;2023-04-29T09:14:00;13.40;99.90
59556;DHT22;45374;52.746;6.304;2023-04-29T09:16:29;13.60;99.90
59556;DHT22;45374;52.746;6.304;2023-04-29T09:18:55;13.70;99.90
59556;DHT22;45374;52.746;6.304;2023-04-29T09:21:28;14.00;99.90
59556;DHT22;45374;52.746;6.304;2023-04-29T09:23:59;14.10;99.90
59556;DHT22;45374;52.746;6.304;2023-04-29T09:26:25;14.20;99.90
59556;DHT22;45374;52.746;6.304;2023-04-29T09:29:11;14.20;99.90
59556;DHT22;45374;52.746;6.304;2023-04-29T09:31:43;14.10;99.90
59556;DHT22;45374;52.746;6.304;2023-04-29T09:34:09;13.90;99.90
59556;DHT22;45374;52.746;6.304;2023-04-29T09:36:45;13.80;99.90
59556;DHT22;45374;52.746;6.304;2023-04-29T09:39:22;13.80;99.90
59556;DHT22;45374;52.746;6.304;2023-04-29T09:44:26;13.70;99.90
59556;DHT22;45374;52.746;6.304;2023-04-29T09:47:01;13.70;99.90
59556;DHT22;45374;52.746;6.304;2023-04-29T09:49:34;13.90;99.90
59556;DHT22;45374;52.746;6.304;2023-04-29T09:52:03;14.10;99.90
59556;DHT22;45374;52.746;6.304;2023-04-29T09:54:31;14.30;99.90
59556;DHT22;45374;52.746;6.304;2023-04-29T09:56:58;14.40;99.90
59556;DHT22;45374;52.746;6.304;2023-04-29T09:59:24;14.60;99.90
59556;DHT22;45374;52.746;6.304;2023-04-29T10:01:52;14.60;99.90
59556;DHT22;45374;52.746;6.304;2023-04-29T10:04:19;14.60;99.90
59556;DHT22;45374;52.746;6.304;2023-04-29T10:06:48;14.70;99.90
59556;DHT22;45374;52.746;6.304;2023-04-29T10:09:15;14.90;99.90
59556;DHT22;45374;52.746;6.304;2023-04-29T10:11:45;14.80;99.90
59556;DHT22;45374;52.746;6.304;2023-04-29T10:14:19;14.40;99.90
59556;DHT22;45374;52.746;6.304;2023-04-29T10:16:45;14.10;99.90
59556;DHT22;45374;52.746;6.304;2023-04-29T10:19:11;14.00;99.90
59556;DHT22;45374;52.746;6.304;2023-04-29T10:21:39;14.10;99.90
59556;DHT22;45374;52.746;6.304;2023-04-29T10:24:05;14.30;99.90
59556;DHT22;45374;52.746;6.304;2023-04-29T10:26:33;14.50;99.90
59556;DHT22;45374;52.746;6.304;2023-04-29T10:29:01;14.70;99.90
59556;DHT22;45374;52.746;6.304;2023-04-29T10:31:28;14.90;99.90
59556;DHT22;45374;52.746;6.304;2023-04-29T10:33:57;15.10;99.90
59556;DHT22;45374;52.746;6.304;2023-04-29T10:36:24;15.30;99.90
59556;DHT22;45374;52.746;6.304;2023-04-29T10:38:55;15.30;99.90
59556;DHT22;45374;52.746;6.304;2023-04-29T10:41:32;15.40;99.90
59556;DHT22;45374;52.746;6.304;2023-04-29T10:43:59;15.50;99.90
59556;DHT22;45374;52.746;6.304;2023-04-29T10:46:25;15.60;99.90
59556;DHT22;45374;52.746;6.304;2023-04-29T10:49:17;15.40;99.90
59556;DHT22;45374;52.746;6.304;2023-04-29T10:51:44;15.30;99.90
59556;DHT22;45374;52.746;6.304;2023-04-29T10:54:17;15.20;99.90
59556;DHT22;45374;52.746;6.304;2023-04-29T10:56:51;15.20;99.90
59556;DHT22;45374;52.746;6.304;2023-04-29T11:01:58;15.40;99.90
59556;DHT22;45374;52.746;6.304;2023-04-29T11:04:26;15.50;99.90
59556;DHT22;45374;52.746;6.304;2023-04-29T11:06:56;15.40;99.90
59556;DHT22;45374;52.746;6.304;2023-04-29T11:09:34;15.30;99.90
59556;DHT22;45374;52.746;6.304;2023-04-29T11:12:03;15.20;99.90
59556;DHT22;45374;52.746;6.304;2023-04-29T11:17:03;15.30;99.90
59556;DHT22;45374;52.746;6.304;2023-04-29T11:19:39;15.40;99.90
59556;DHT22;45374;52.746;6.304;2023-04-29T11:24:54;15.40;99.90
59556;DHT22;45374;52.746;6.304;2023-04-29T11:27:22;15.30;99.90
59556;DHT22;45374;52.746;6.304;2023-04-29T11:29:51;15.30;99.90
59556;DHT22;45374;52.746;6.304;2023-04-29T11:32:20;15.30;99.90
59556;DHT22;45374;52.746;6.304;2023-04-29T11:34:46;15.20;99.90
59556;DHT22;45374;52.746;6.304;2023-04-29T11:37:19;15.20;99.90
59556;DHT22;45374;52.746;6.304;2023-04-29T11:39:45;15.30;99.90
59556;DHT22;45374;52.746;6.304;2023-04-29T11:42:10;15.30;99.90
59556;DHT22;45374;52.746;6.304;2023-04-29T11:44:36;15.30;99.90
59556;DHT22;45374;52.746;6.304;2023-04-29T11:47:06;15.40;99.90
59556;DHT22;45374;52.746;6.304;2023-04-29T11:49:33;15.50;99.90
59556;DHT22;45374;52.746;6.304;2023-04-29T11:51:58;15.60;99.90
59556;DHT22;45374;52.746;6.304;2023-04-29T11:54:25;15.70;99.90
59556;DHT22;45374;52.746;6.304;2023-04-29T11:56:53;15.60;99.90
59556;DHT22;45374;52.746;6.304;2023-04-29T11:59:19;15.70;99.90
59556;DHT22;45374;52.746;6.304;2023-04-29T12:01:45;15.60;99.90
59556;DHT22;45374;52.746;6.304;2023-04-29T12:04:11;15.50;99.90
59556;DHT22;45374;52.746;6.304;2023-04-29T12:06:36;15.40;99.90
59556;DHT22;45374;52.746;6.304;2023-04-29T12:09:02;15.50;99.90
59556;DHT22;45374;52.746;6.304;2023-04-29T12:11:29;15.60;99.90
59556;DHT22;45374;52.746;6.304;2023-04-29T12:13:55;15.50;99.90
59556;DHT22;45374;52.746;6.304;2023-04-29T12:16:21;15.40;99.90
59556;DHT22;45374;52.746;6.304;2023-04-29T12:18:49;15.40;99.90
59556;DHT22;45374;52.746;6.304;2023-04-29T12:21:15;15.50;99.90
59556;DHT22;45374;52.746;6.304;2023-04-29T12:23:41;15.60;99.90
59556;DHT22;45374;52.746;6.304;2023-04-29T12:26:07;15.70;99.90
59556;DHT22;45374;52.746;6.304;2023-04-29T12:28:33;15.70;99.90
59556;DHT22;45374;52.746;6.304;2023-04-29T12:30:59;15.80;99.90
59556;DHT22;45374;52.746;6.304;2023-04-29T12:33:27;15.90;99.90
59556;DHT22;45374;52.746;6.304;2023-04-29T12:35:56;15.80;99.90
59556;DHT22;45374;52.746;6.304;2023-04-29T12:38:26;15.80;99.90
59556;DHT22;45374;52.746;6.304;2023-04-29T12:40:58;15.80;99.90
59556;DHT22;45374;52.746;6.304;2023-04-29T12:43:28;15.90;99.90
59556;DHT22;45374;52.746;6.304;2023-04-29T12:46:00;15.90;99.90
59556;DHT22;45374;52.746;6.304;2023-04-29T12:48:30;15.80;99.90
59556;DHT22;45374;52.746;6.304;2023-04-29T12:50:57;15.90;99.90
59556;DHT22;45374;52.746;6.304;2023-04-29T12:53:24;15.80;99.90
59556;DHT22;45374;52.746;6.304;2023-04-29T12:55:50;15.80;99.90
59556;DHT22;45374;52.746;6.304;2023-04-29T12:58:16;15.70;99.90
59556;DHT22;45374;52.746;6.304;2023-04-29T13:00:42;15.70;99.90
59556;DHT22;45374;52.746;6.304;2023-04-29T13:03:07;15.70;99.90
59556;DHT22;45374;52.746;6.304;2023-04-29T13:05:33;15.80;99.90
59556;DHT22;45374;52.746;6.304;2023-04-29T13:07:59;15.80;99.90
59556;DHT22;45374;52.746;6.304;2023-04-29T13:10:25;15.80;99.90
59556;DHT22;45374;52.746;6.304;2023-04-29T13:12:52;15.70;99.90
59556;DHT22;45374;52.746;6.304;2023-04-29T13:15:18;15.70;99.90
59556;DHT22;45374;52.746;6.304;2023-04-29T13:17:43;15.70;99.90
59556;DHT22;45374;52.746;6.304;2023-04-29T13:20:10;15.80;99.90
59556;DHT22;45374;52.746;6.304;2023-04-29T13:22:36;15.80;99.90
59556;DHT22;45374;52.746;6.304;2023-04-29T13:25:01;15.70;99.90
59556;DHT22;45374;52.746;6.304;2023-04-29T13:27:27;15.80;99.90
59556;DHT22;45374;52.746;6.304;2023-04-29T13:29:53;15.70;99.90
59556;DHT22;45374;52.746;6.304;2023-04-29T13:32:18;15.80;99.90
59556;DHT22;45374;52.746;6.304;2023-04-29T13:34:49;15.90;99.90
59556;DHT22;45374;52.746;6.304;2023-04-29T13:37:15;15.80;99.90
59556;DHT22;45374;52.746;6.304;2023-04-29T13:39:41;15.70;99.90
59556;DHT22;45374;52.746;6.304;2023-04-29T13:42:07;15.70;99.90
59556;DHT22;45374;52.746;6.304;2023-04-29T13:44:33;15.80;99.90
59556;DHT22;45374;52.746;6.304;2023-04-29T13:46:59;15.90;99.90
59556;DHT22;45374;52.746;6.304;2023-04-29T13:49:25;15.90;99.90
59556;DHT22;45374;52.746;6.304;2023-04-29T13:51:51;15.90;99.90
59556;DHT22;45374;52.746;6.304;2023-04-29T13:54:17;15.90;99.90
59556;DHT22;45374;52.746;6.304;2023-04-29T13:56:45;15.80;99.90
59556;DHT22;45374;52.746;6.304;2023-04-29T13:59:11;15.90;99.90
59556;DHT22;45374;52.746;6.304;2023-04-29T14:01:37;15.90;99.90
59556;DHT22;45374;52.746;6.304;2023-04-29T14:04:02;16.00;99.90
59556;DHT22;45374;52.746;6.304;2023-04-29T14:06:28;16.00;99.90
59556;DHT22;45374;52.746;6.304;2023-04-29T14:08:57;16.10;99.90
59556;DHT22;45374;52.746;6.304;2023-04-29T14:11:22;16.20;99.90
59556;DHT22;45374;52.746;6.304;2023-04-29T14:13:48;16.30;99.90
59556;DHT22;45374;52.746;6.304;2023-04-29T14:16:13;16.30;99.90
59556;DHT22;45374;52.746;6.304;2023-04-29T14:18:39;16.30;99.90
59556;DHT22;45374;52.746;6.304;2023-04-29T14:21:05;16.30;99.90
59556;DHT22;45374;52.746;6.304;2023-04-29T14:23:30;16.10;99.90
59556;DHT22;45374;52.746;6.304;2023-04-29T14:25:56;16.10;99.90
59556;DHT22;45374;52.746;6.304;2023-04-29T14:28:21;16.10;99.90
59556;DHT22;45374;52.746;6.304;2023-04-29T14:30:47;16.10;99.90
59556;DHT22;45374;52.746;6.304;2023-04-29T14:33:12;16.00;99.90
59556;DHT22;45374;52.746;6.304;2023-04-29T14:35:38;16.00;99.90
59556;DHT22;45374;52.746;6.304;2023-04-29T14:38:03;15.90;99.90
59556;DHT22;45374;52.746;6.304;2023-04-29T14:40:29;15.90;99.90
59556;DHT22;45374;52.746;6.304;2023-04-29T14:42:55;16.00;99.90
59556;DHT22;45374;52.746;6.304;2023-04-29T14:45:20;16.10;99.90
59556;DHT22;45374;52.746;6.304;2023-04-29T14:47:45;16.20;99.90
59556;DHT22;45374;52.746;6.304;2023-04-29T14:50:11;16.30;99.90
59556;DHT22;45374;52.746;6.304;2023-04-29T14:52:39;16.50;99.90
59556;DHT22;45374;52.746;6.304;2023-04-29T14:55:05;16.40;99.90
59556;DHT22;45374;52.746;6.304;2023-04-29T14:57:30;16.40;99.90
59556;DHT22;45374;52.746;6.304;2023-04-29T14:59:56;16.30;99.90
59556;DHT22;45374;52.746;6.304;2023-04-29T15:02:21;16.30;99.90
59556;DHT22;45374;52.746;6.304;2023-04-29T15:04:47;16.30;99.90
59556;DHT22;45374;52.746;6.304;2023-04-29T15:07:13;16.50;99.90
59556;DHT22;45374;52.746;6.304;2023-04-29T15:09:40;16.60;99.90
59556;DHT22;45374;52.746;6.304;2023-04-29T15:12:05;16.60;99.90
59556;DHT22;45374;52.746;6.304;2023-04-29T15:14:31;16.70;99.90
59556;DHT22;45374;52.746;6.304;2023-04-29T15:16:57;17.00;99.90
59556;DHT22;45374;52.746;6.304;2023-04-29T15:19:23;17.20;99.90
59556;DHT22;45374;52.746;6.304;2023-04-29T15:21:51;17.40;99.90
59556;DHT22;45374;52.746;6.304;2023-04-29T15:24:18;17.40;99.90
59556;DHT22;45374;52.746;6.304;2023-04-29T15:26:44;17.40;99.90
59556;DHT22;45374;52.746;6.304;2023-04-29T15:29:09;17.30;99.90
59556;DHT22;45374;52.746;6.304;2023-04-29T15:31:36;17.30;99.90
59556;DHT22;45374;52.746;6.304;2023-04-29T15:34:01;17.40;99.90
59556;DHT22;45374;52.746;6.304;2023-04-29T15:36:29;17.70;99.90
59556;DHT22;45374;52.746;6.304;2023-04-29T15:38:55;18.00;99.90
59556;DHT22;45374;52.746;6.304;2023-04-29T15:41:20;18.20;99.90
59556;DHT22;45374;52.746;6.304;2023-04-29T15:43:46;18.00;99.90
59556;DHT22;45374;52.746;6.304;2023-04-29T15:46:12;17.80;99.90
59556;DHT22;45374;52.746;6.304;2023-04-29T15:48:38;17.60;99.90
59556;DHT22;45374;52.746;6.304;2023-04-29T15:51:03;17.50;99.90
59556;DHT22;45374;52.746;6.304;2023-04-29T15:53:29;17.30;99.90
59556;DHT22;45374;52.746;6.304;2023-04-29T15:55:54;17.10;99.90